Time;durP1;ratioP1;P1;durP2;ratioP2;P2;SDS_P1;SDS_P2;PMS_P1;PMS_P2;Temp;Humidity;BMP_temperature;BMP_pressure;BME280_temperature;BME280_humidity;BME280_pressure;Samples;Min_cycle;Max_cycle;Signal;HPM_P1;HPM_P2
2021/12/08 00:00:43;;;;;;;83.65;24.67;;;1.40;99.90;;;;;;5023590;28;20049;-76
2021/12/08 00:03:11;;;;;;;90.88;26.75;;;1.40;99.90;;;;;;5024047;28;20049;-75
2021/12/08 00:05:43;;;;;;;92.63;27.52;;;1.40;99.90;;;;;;5025303;28;20080;-76
2021/12/08 00:08:13;;;;;;;89.03;26.58;;;1.40;99.90;;;;;;5002762;28;20084;-76
2021/12/08 00:13:19;;;;;;;77.55;25.05;;;1.40;99.90;;;;;;5011758;28;20138;-76
2021/12/08 00:15:49;;;;;;;90.43;26.27;;;1.40;99.90;;;;;;5025132;28;20083;-76
2021/12/08 00:18:25;;;;;;;89.22;26.67;;;1.50;99.90;;;;;;4994200;28;20053;-76
2021/12/08 00:20:54;;;;;;;80.75;25.65;;;1.40;99.90;;;;;;5010270;28;20688;-76
2021/12/08 00:23:25;;;;;;;86.15;27.85;;;1.50;99.90;;;;;;5006950;28;20148;-76
2021/12/08 00:25:53;;;;;;;78.95;24.55;;;1.50;99.90;;;;;;5025055;28;20148;-76
2021/12/08 00:28:20;;;;;;;84.30;26.98;;;1.50;99.90;;;;;;5006835;28;20050;-76
2021/12/08 00:30:51;;;;;;;81.05;25.63;;;1.50;99.90;;;;;;5023017;28;20060;-76
2021/12/08 00:33:19;;;;;;;86.82;26.73;;;1.50;99.90;;;;;;5003373;28;20442;-76
2021/12/08 00:35:49;;;;;;;84.25;27.48;;;1.50;99.90;;;;;;5004147;28;20133;-76
2021/12/08 00:38:19;;;;;;;83.90;26.50;;;1.50;99.90;;;;;;4996948;28;20059;-76
2021/12/08 00:40:48;;;;;;;86.03;25.48;;;1.50;99.90;;;;;;5014772;28;20188;-76
2021/12/08 00:43:16;;;;;;;81.65;26.30;;;1.50;99.90;;;;;;5020558;28;20084;-76
2021/12/08 00:45:43;;;;;;;83.30;26.38;;;1.50;99.90;;;;;;5006237;28;20132;-76
2021/12/08 00:48:11;;;;;;;84.93;26.27;;;1.50;99.90;;;;;;5014833;28;20050;-76
2021/12/08 00:50:39;;;;;;;79.50;26.42;;;1.50;99.90;;;;;;5015318;28;20803;-76
2021/12/08 00:53:07;;;;;;;78.03;25.40;;;1.50;99.90;;;;;;5025030;28;20081;-76
2021/12/08 00:55:35;;;;;;;80.40;24.13;;;1.50;99.90;;;;;;5015770;28;20128;-76
2021/12/08 00:58:02;;;;;;;85.65;27.00;;;1.50;99.90;;;;;;5016425;28;20144;-76
2021/12/08 01:00:36;;;;;;;87.30;24.92;;;1.60;99.90;;;;;;5006173;28;20494;-76
2021/12/08 01:03:04;;;;;;;99.73;27.47;;;1.60;99.90;;;;;;5006812;28;20084;-76
2021/12/08 01:05:35;;;;;;;87.35;26.27;;;1.60;99.90;;;;;;5010652;28;20203;-76
2021/12/08 01:08:04;;;;;;;81.95;25.23;;;1.60;99.90;;;;;;5010189;28;20137;-76
2021/12/08 01:10:32;;;;;;;82.38;24.63;;;1.60;99.90;;;;;;5003960;28;20081;-76
2021/12/08 01:13:04;;;;;;;79.45;26.08;;;1.60;99.90;;;;;;5028357;28;20049;-76
2021/12/08 01:15:31;;;;;;;78.25;26.10;;;1.60;99.90;;;;;;5028447;28;20139;-76
2021/12/08 01:17:57;;;;;;;77.63;27.45;;;1.60;99.90;;;;;;4998382;28;20063;-76
2021/12/08 01:20:25;;;;;;;79.93;27.13;;;1.60;99.90;;;;;;5005146;28;20137;-76
2021/12/08 01:22:52;;;;;;;80.05;23.30;;;1.60;99.90;;;;;;5010828;28;20860;-75
2021/12/08 01:25:19;;;;;;;83.40;25.08;;;1.60;99.90;;;;;;5005506;28;20140;-76
2021/12/08 01:27:46;;;;;;;83.85;24.60;;;1.60;99.90;;;;;;5026156;28;20138;-76
2021/12/08 01:30:13;;;;;;;78.28;24.80;;;1.60;99.90;;;;;;5009892;28;20745;-76
2021/12/08 01:32:40;;;;;;;86.15;26.63;;;1.60;99.90;;;;;;5027195;28;20108;-75
2021/12/08 01:35:09;;;;;;;68.97;23.38;;;1.60;99.90;;;;;;4999328;28;20049;-75
2021/12/08 01:37:35;;;;;;;82.85;26.92;;;1.70;99.90;;;;;;5008551;28;20077;-76
2021/12/08 01:40:08;;;;;;;80.28;24.77;;;1.60;99.90;;;;;;5026607;28;20157;-76
2021/12/08 01:42:42;;;;;;;76.53;23.58;;;1.70;99.90;;;;;;5027342;28;20464;-76
2021/12/08 01:47:57;;;;;;;82.70;26.23;;;1.60;99.90;;;;;;5013680;28;20194;-76
2021/12/08 01:50:25;;;;;;;79.85;26.02;;;1.70;99.90;;;;;;5008134;28;20079;-76
2021/12/08 01:52:52;;;;;;;86.70;26.85;;;1.70;99.90;;;;;;5009874;28;20056;-76
2021/12/08 01:55:19;;;;;;;81.60;25.95;;;1.60;99.90;;;;;;5026181;28;20160;-76
2021/12/08 01:57:47;;;;;;;84.88;26.23;;;1.60;99.90;;;;;;5027184;28;20140;-76
2021/12/08 02:00:35;;;;;;;86.55;25.15;;;1.70;99.90;;;;;;5007175;28;20049;-76
2021/12/08 02:03:02;;;;;;;80.05;23.50;;;1.70;99.90;;;;;;5024495;28;20120;-76
2021/12/08 02:05:29;;;;;;;78.60;25.02;;;1.60;99.90;;;;;;4991926;28;20058;-76
2021/12/08 02:07:56;;;;;;;74.85;24.27;;;1.60;99.90;;;;;;5020717;28;20050;-76
2021/12/08 02:10:24;;;;;;;86.47;26.27;;;1.60;99.90;;;;;;5008765;28;20136;-76
2021/12/08 02:12:52;;;;;;;85.10;25.88;;;1.50;99.90;;;;;;5026823;28;20041;-76
2021/12/08 02:15:20;;;;;;;76.50;24.52;;;1.50;99.90;;;;;;5026034;28;20485;-75
2021/12/08 02:17:51;;;;;;;79.85;24.13;;;1.50;99.90;;;;;;5009090;28;20637;-75
2021/12/08 02:20:30;;;;;;;78.20;24.77;;;1.50;99.90;;;;;;5026455;28;20107;-75
2021/12/08 02:22:57;;;;;;;80.57;24.75;;;1.50;99.90;;;;;;5027251;28;20145;-75
2021/12/08 02:25:25;;;;;;;72.53;22.95;;;1.60;99.90;;;;;;5007378;28;20132;-75
2021/12/08 02:27:55;;;;;;;77.85;25.52;;;1.60;99.90;;;;;;5026932;28;20903;-75
2021/12/08 02:47:09;;;;;;;73.85;21.73;;;1.60;99.90;;;;;;5009295;28;20108;-75
2021/12/08 02:49:37;;;;;;;65.90;23.50;;;1.60;99.90;;;;;;5026380;28;20156;-75
2021/12/08 02:52:07;;;;;;;76.47;23.00;;;1.60;99.90;;;;;;5006162;28;20132;-75
2021/12/08 02:54:40;;;;;;;68.57;22.52;;;1.60;99.90;;;;;;5018279;28;20079;-75
2021/12/08 02:57:08;;;;;;;67.55;22.27;;;1.60;99.90;;;;;;5025833;28;20114;-75
2021/12/08 02:59:36;;;;;;;76.57;23.48;;;1.60;99.90;;;;;;5025824;28;20542;-75
2021/12/08 03:02:03;;;;;;;77.82;23.08;;;1.60;99.90;;;;;;5021914;28;20085;-75
2021/12/08 03:04:30;;;;;;;73.05;23.58;;;1.60;99.90;;;;;;5002279;28;20053;-75
2021/12/08 03:06:57;;;;;;;67.32;23.42;;;1.60;99.90;;;;;;5007281;28;20516;-75
2021/12/08 03:09:24;;;;;;;71.18;23.65;;;1.60;99.90;;;;;;5024017;28;20150;-75
2021/12/08 03:11:53;;;;;;;69.57;23.08;;;1.60;99.90;;;;;;5025536;28;20521;-75
2021/12/08 03:14:20;;;;;;;66.15;22.45;;;1.60;99.90;;;;;;5008090;28;20093;-75
2021/12/08 03:16:56;;;;;;;77.10;23.05;;;1.60;99.90;;;;;;5008056;28;20085;-75
2021/12/08 03:19:25;;;;;;;69.25;21.65;;;1.60;99.90;;;;;;5003517;28;20080;-75
2021/12/08 03:21:54;;;;;;;69.53;23.00;;;1.60;99.90;;;;;;4997593;28;20191;-75
2021/12/08 03:24:28;;;;;;;69.60;22.83;;;1.60;99.90;;;;;;5024759;28;20248;-75
2021/12/08 03:30:13;;;;;;;86.13;25.25;;;1.60;99.90;;;;;;5023164;28;20084;-75
2021/12/08 03:32:34;;;;;;;67.78;22.27;;;1.60;99.90;;;;;;5022321;28;20055;-75
2021/12/08 03:35:02;;;;;;;67.03;23.95;;;1.60;99.90;;;;;;5025137;28;20152;-75
2021/12/08 03:37:34;;;;;;;58.05;19.15;;;1.60;99.90;;;;;;5025713;28;20116;-75
2021/12/08 03:40:13;;;;;;;64.03;21.80;;;1.60;99.90;;;;;;5007268;28;20164;-75
2021/12/08 03:42:42;;;;;;;61.88;21.60;;;1.60;99.90;;;;;;5006612;28;20138;-76
2021/12/08 03:45:14;;;;;;;66.28;21.77;;;1.60;99.90;;;;;;5023051;28;20586;-75
2021/12/08 03:47:43;;;;;;;62.42;21.08;;;1.60;99.90;;;;;;5006846;28;20144;-75
2021/12/08 03:50:13;;;;;;;59.00;21.92;;;1.60;99.90;;;;;;5006474;28;20105;-76
2021/12/08 03:52:40;;;;;;;60.70;19.58;;;1.60;99.90;;;;;;5023157;28;20076;-76
2021/12/08 03:55:10;;;;;;;64.30;22.00;;;1.60;99.90;;;;;;5003964;28;20552;-75
2021/12/08 03:57:37;;;;;;;69.28;21.20;;;1.60;99.90;;;;;;5007020;28;20473;-75
2021/12/08 04:00:08;;;;;;;59.70;20.52;;;1.60;99.90;;;;;;5007270;28;20053;-76
2021/12/08 04:02:35;;;;;;;56.65;20.00;;;1.60;99.90;;;;;;5007444;28;20490;-76
2021/12/08 04:05:05;;;;;;;67.68;21.42;;;1.60;99.90;;;;;;5024456;28;20057;-76
2021/12/08 04:07:32;;;;;;;65.20;22.00;;;1.60;99.90;;;;;;5007443;28;20103;-76
2021/12/08 04:09:59;;;;;;;59.53;23.48;;;1.60;99.90;;;;;;5006815;28;20145;-75
2021/12/08 04:12:26;;;;;;;58.80;20.30;;;1.60;99.90;;;;;;5018014;28;20153;-76
2021/12/08 04:14:57;;;;;;;62.13;20.25;;;1.60;99.90;;;;;;5004678;28;20057;-76
2021/12/08 04:17:38;;;;;;;68.55;21.52;;;1.60;99.90;;;;;;5019064;28;20073;-76
2021/12/08 04:20:14;;;;;;;64.63;20.77;;;1.60;99.90;;;;;;4994816;28;20569;-76
2021/12/08 04:22:44;;;;;;;66.25;20.85;;;1.60;99.90;;;;;;5009137;28;20057;-76
2021/12/08 04:25:15;;;;;;;59.72;18.20;;;1.60;99.90;;;;;;5025076;28;20140;-76
2021/12/08 04:27:45;;;;;;;62.05;18.63;;;1.60;99.90;;;;;;4998008;28;20042;-76
2021/12/08 04:30:20;;;;;;;58.85;19.27;;;1.60;99.90;;;;;;4999001;28;20144;-76
2021/12/08 04:32:47;;;;;;;69.68;20.73;;;1.60;99.90;;;;;;5006926;28;20471;-76
2021/12/08 04:35:17;;;;;;;63.25;20.17;;;1.60;99.90;;;;;;5001392;28;20164;-77
2021/12/08 04:37:49;;;;;;;70.57;20.70;;;1.60;99.90;;;;;;5000981;28;20157;-77
2021/12/08 04:43:18;;;;;;;57.45;20.48;;;1.60;99.90;;;;;;5027404;28;20052;-76
2021/12/08 04:46:01;;;;;;;64.60;18.75;;;1.50;99.90;;;;;;5009502;28;20725;-76
2021/12/08 04:49:00;;;;;;;60.88;21.75;;;1.60;99.90;;;;;;5009248;28;20571;-77
2021/12/08 05:04:06;;;;;;;49.95;19.13;;;1.40;99.90;;;;;;5027952;28;20128;-77
2021/12/08 05:06:48;;;;;;;62.53;20.85;;;1.40;99.90;;;;;;4991417;28;20049;-76
2021/12/08 05:09:25;;;;;;;60.03;20.35;;;1.40;99.90;;;;;;5017958;28;20156;-76
2021/12/08 05:12:01;;;;;;;60.88;21.45;;;1.40;99.90;;;;;;5028501;28;20119;-76
2021/12/08 05:14:51;;;;;;;71.13;23.92;;;1.40;99.90;;;;;;5014250;28;20077;-76
2021/12/08 05:17:23;;;;;;;68.55;21.92;;;1.40;99.90;;;;;;4971464;28;20152;-76
2021/12/08 05:19:55;;;;;;;72.63;24.52;;;1.50;99.90;;;;;;5022694;28;20554;-77
2021/12/08 05:22:28;;;;;;;60.35;20.98;;;1.40;99.90;;;;;;5025700;28;20843;-77
2021/12/08 05:24:57;;;;;;;65.50;22.90;;;1.40;99.90;;;;;;5006236;28;20128;-77
2021/12/08 05:27:34;;;;;;;69.53;22.77;;;1.50;99.90;;;;;;5011355;28;20133;-77
2021/12/08 05:30:12;;;;;;;72.32;23.90;;;1.50;99.90;;;;;;5028781;28;20089;-77
2021/12/08 05:32:40;;;;;;;65.68;23.50;;;1.50;99.90;;;;;;5027818;28;20077;-77
2021/12/08 05:35:10;;;;;;;62.13;22.02;;;1.50;99.90;;;;;;5027964;28;20194;-77
2021/12/08 05:37:38;;;;;;;64.72;21.45;;;1.40;99.90;;;;;;5028541;28;20128;-77
2021/12/08 05:40:13;;;;;;;65.03;24.60;;;1.50;99.90;;;;;;5027964;28;20084;-77
2021/12/08 05:42:40;;;;;;;68.55;23.45;;;1.50;99.90;;;;;;5028281;28;20080;-77
2021/12/08 05:45:15;;;;;;;66.18;22.75;;;1.60;99.90;;;;;;5025869;28;20534;-77
2021/12/08 05:47:44;;;;;;;60.67;22.33;;;1.50;99.90;;;;;;5009890;28;20046;-77
2021/12/08 05:50:14;;;;;;;58.30;22.00;;;1.50;99.90;;;;;;5009244;28;20709;-77
2021/12/08 05:52:41;;;;;;;51.28;19.63;;;1.60;99.90;;;;;;5025632;28;20073;-77
2021/12/08 05:55:10;;;;;;;61.03;20.85;;;1.60;99.90;;;;;;4998798;28;20076;-77
2021/12/08 05:57:40;;;;;;;71.40;24.00;;;1.60;99.90;;;;;;4992636;28;20053;-78
2021/12/08 06:00:31;;;;;;;61.83;21.58;;;1.60;99.90;;;;;;5015262;28;20089;-78
2021/12/08 06:05:35;;;;;;;58.75;21.92;;;1.70;99.90;;;;;;4986912;28;20038;-81
2021/12/08 06:08:02;;;;;;;64.90;21.05;;;1.70;99.90;;;;;;4970752;28;20056;-81
2021/12/08 06:10:33;;;;;;;54.97;20.35;;;1.70;99.90;;;;;;4988580;28;20133;-79
2021/12/08 06:13:00;;;;;;;54.97;19.90;;;1.70;99.90;;;;;;4989258;28;20478;-80
2021/12/08 06:15:29;;;;;;;65.15;21.33;;;1.70;99.90;;;;;;4976385;28;20424;-80
2021/12/08 06:17:56;;;;;;;51.95;19.83;;;1.70;99.90;;;;;;4994230;28;20058;-82
2021/12/08 06:20:23;;;;;;;53.33;20.02;;;1.80;99.90;;;;;;4993692;28;20082;-82
2021/12/08 06:22:54;;;;;;;54.10;19.25;;;1.80;99.90;;;;;;4993454;28;20860;-81
2021/12/08 06:25:21;;;;;;;55.55;21.00;;;1.80;99.90;;;;;;4976623;28;20092;-82
2021/12/08 06:27:48;;;;;;;58.10;19.88;;;1.80;99.90;;;;;;4993804;28;20180;-80
2021/12/08 06:30:22;;;;;;;54.88;21.75;;;1.80;99.90;;;;;;4993471;28;20080;-81
2021/12/08 06:32:51;;;;;;;53.55;19.75;;;1.80;99.90;;;;;;4993337;28;20462;-80
2021/12/08 06:35:27;;;;;;;62.85;20.15;;;1.80;99.90;;;;;;4990804;28;20088;-80
2021/12/08 06:37:54;;;;;;;63.75;21.67;;;1.80;99.90;;;;;;4988490;28;20051;-83
2021/12/08 06:40:44;;;;;;;60.13;20.58;;;1.80;99.90;;;;;;4994244;28;20047;-82
2021/12/08 06:43:16;;;;;;;57.50;21.23;;;1.80;99.90;;;;;;4992009;28;20538;-81
2021/12/08 06:45:47;;;;;;;59.55;20.67;;;1.80;99.90;;;;;;4994138;28;20109;-81
2021/12/08 06:48:19;;;;;;;52.95;21.35;;;1.80;99.90;;;;;;4976665;28;20101;-82
2021/12/08 06:50:52;;;;;;;55.88;20.55;;;1.80;99.90;;;;;;4977161;28;20089;-81
2021/12/08 06:53:23;;;;;;;48.60;19.48;;;1.80;99.90;;;;;;4994106;28;20042;-81
2021/12/08 06:56:05;;;;;;;56.33;20.65;;;1.90;99.90;;;;;;4976349;28;20471;-83
2021/12/08 06:58:38;;;;;;;63.38;21.05;;;1.80;99.90;;;;;;4976455;28;20559;-83
2021/12/08 07:01:49;;;;;;;54.58;19.55;;;1.70;99.90;;;;;;4974444;28;20070;-83
2021/12/08 07:04:31;;;;;;;54.75;19.65;;;1.80;99.90;;;;;;4972721;28;20042;-82
2021/12/08 07:07:12;;;;;;;56.13;21.23;;;1.70;99.90;;;;;;4975842;28;20385;-81
2021/12/08 07:09:48;;;;;;;47.33;18.80;;;1.80;99.90;;;;;;4991191;28;20105;-84
2021/12/08 07:12:20;;;;;;;50.30;19.67;;;1.70;99.90;;;;;;4992791;28;20504;-81
2021/12/08 07:15:02;;;;;;;60.55;20.08;;;1.80;99.90;;;;;;4993095;28;20069;-81
2021/12/08 07:17:35;;;;;;;57.33;20.65;;;1.70;99.90;;;;;;4980432;28;20089;-81
2021/12/08 07:20:17;;;;;;;52.63;19.65;;;1.70;99.90;;;;;;4992264;28;20467;-80
2021/12/08 07:22:47;;;;;;;56.50;21.95;;;1.80;99.90;;;;;;4975798;28;20051;-82
2021/12/08 07:25:20;;;;;;;59.72;20.90;;;1.80;99.90;;;;;;4992269;28;20092;-81
2021/12/08 07:27:47;;;;;;;58.33;19.38;;;1.80;99.90;;;;;;4992729;28;20737;-81
2021/12/08 07:30:20;;;;;;;54.05;20.35;;;1.80;99.90;;;;;;4992409;28;20082;-81
2021/12/08 07:32:48;;;;;;;64.80;21.15;;;1.80;99.90;;;;;;4976207;28;20070;-81
2021/12/08 07:35:49;;;;;;;61.65;20.70;;;1.80;99.90;;;;;;4974960;28;20046;-81
2021/12/08 07:38:23;;;;;;;58.50;21.08;;;1.80;99.90;;;;;;4974909;28;20069;-80
2021/12/08 07:41:13;;;;;;;57.33;21.27;;;1.80;99.90;;;;;;4991083;28;20082;-80
2021/12/08 07:43:47;;;;;;;63.40;20.42;;;1.90;99.90;;;;;;4989141;28;20161;-80
2021/12/08 07:46:22;;;;;;;57.15;21.40;;;1.90;99.90;;;;;;4989853;28;20103;-79
2021/12/08 07:48:57;;;;;;;53.85;19.88;;;1.90;99.90;;;;;;4989007;28;20113;-80
2021/12/08 07:51:33;;;;;;;55.20;20.73;;;1.90;99.90;;;;;;4974380;28;20504;-80
2021/12/08 07:54:02;;;;;;;54.90;20.58;;;1.90;99.90;;;;;;4984470;28;20467;-79
2021/12/08 07:56:29;;;;;;;64.88;21.77;;;1.90;99.90;;;;;;4991406;28;20046;-79
2021/12/08 07:59:00;;;;;;;51.78;19.73;;;2.00;99.90;;;;;;4974579;28;20096;-79
2021/12/08 08:01:31;;;;;;;61.72;22.00;;;1.90;99.90;;;;;;4986518;28;20054;-81
2021/12/08 08:03:59;;;;;;;60.88;21.98;;;2.00;99.90;;;;;;4966632;28;20077;-81
2021/12/08 08:06:34;;;;;;;61.83;21.08;;;2.00;99.90;;;;;;4971389;28;20051;-81
2021/12/08 08:09:05;;;;;;;;;;;2.10;99.90;;;;;;4973295;28;20090;-82
2021/12/08 08:11:41;;;;;;;57.35;20.38;;;2.10;99.90;;;;;;4963064;28;20110;-81
2021/12/08 08:14:19;;;;;;;58.88;22.90;;;2.10;99.90;;;;;;4973224;28;20784;-81
2021/12/08 08:16:51;;;;;;;57.58;21.25;;;2.10;99.90;;;;;;4989248;28;20503;-82
2021/12/08 08:19:19;;;;;;;57.88;19.98;;;2.20;99.90;;;;;;4968430;28;20105;-81
2021/12/08 08:21:49;;;;;;;58.45;21.45;;;2.20;99.90;;;;;;4991389;28;20077;-80
2021/12/08 08:24:19;;;;;;;61.85;21.98;;;2.20;99.90;;;;;;4990755;28;20472;-82
2021/12/08 08:26:49;;;;;;;58.97;20.90;;;2.10;99.90;;;;;;4984651;28;20152;-83
2021/12/08 08:29:20;;;;;;;56.28;20.60;;;2.20;99.90;;;;;;4981174;28;20125;-83
2021/12/08 08:32:02;;;;;;;52.45;21.48;;;2.20;99.90;;;;;;4991957;28;20097;-83
2021/12/08 08:34:37;;;;;;;61.42;21.55;;;2.30;99.90;;;;;;4974057;28;20101;-83
2021/12/08 08:37:12;;;;;;;58.30;21.60;;;2.20;99.90;;;;;;4974216;28;20054;-81
2021/12/08 08:39:43;;;;;;;;;;;2.30;99.90;;;;;;4974646;28;20554;-82
2021/12/08 08:42:23;;;;;;;53.28;18.92;;;2.30;99.90;;;;;;4979005;28;19922;-82
2021/12/08 08:45:05;;;;;;;53.88;21.35;;;2.30;99.90;;;;;;4988819;28;20440;-83
2021/12/08 08:47:37;;;;;;;55.55;19.48;;;2.30;99.90;;;;;;4991908;28;20074;-82
2021/12/08 08:50:09;;;;;;;52.50;19.95;;;2.30;99.90;;;;;;4990668;28;20082;-82
2021/12/08 08:52:43;;;;;;;61.35;19.63;;;2.40;99.90;;;;;;4991923;28;20080;-82
2021/12/08 08:55:48;;;;;;;58.60;21.20;;;2.40;99.90;;;;;;4984674;28;20141;-82
2021/12/08 08:58:20;;;;;;;;;;;2.40;99.90;;;;;;4978377;28;20087;-83
2021/12/08 09:01:13;;;;;;;53.50;19.92;;;2.40;99.90;;;;;;4989462;28;19921;-82
2021/12/08 09:03:44;;;;;;;56.75;19.73;;;2.40;99.90;;;;;;4973713;28;20046;-82
2021/12/08 09:06:17;;;;;;;67.80;21.95;;;2.40;99.90;;;;;;4991015;28;20082;-83
2021/12/08 09:08:45;;;;;;;57.40;20.05;;;2.40;99.90;;;;;;4991171;28;20050;-83
2021/12/08 09:11:16;;;;;;;52.67;19.70;;;2.50;99.90;;;;;;4973617;28;20050;-82
2021/12/08 09:13:51;;;;;;;53.25;20.08;;;2.50;99.90;;;;;;4985392;28;20085;-82
2021/12/08 09:16:25;;;;;;;61.47;22.05;;;2.50;99.90;;;;;;4990327;28;20082;-83
2021/12/08 09:19:05;;;;;;;52.38;20.33;;;2.50;99.90;;;;;;4973932;28;20120;-83
2021/12/08 09:21:35;;;;;;;52.90;20.45;;;2.50;99.90;;;;;;4973729;28;20077;-81
2021/12/08 09:24:12;;;;;;;63.10;22.05;;;2.50;99.90;;;;;;4993653;28;20104;-82
2021/12/08 09:26:44;;;;;;;54.08;20.55;;;2.60;99.90;;;;;;4958655;28;20090;-82
2021/12/08 09:29:20;;;;;;;55.95;18.38;;;2.60;99.90;;;;;;4994044;28;20054;-82
2021/12/08 09:31:54;;;;;;;53.10;20.58;;;2.60;99.90;;;;;;4970458;28;20078;-83
2021/12/08 09:34:31;;;;;;;60.97;22.05;;;2.50;99.90;;;;;;4976109;28;20054;-82
2021/12/08 09:37:04;;;;;;;60.33;20.85;;;2.60;99.90;;;;;;4975902;28;20054;-82
2021/12/08 09:39:49;;;;;;;57.13;20.98;;;2.70;99.90;;;;;;4970929;28;20046;-82
2021/12/08 09:42:31;;;;;;;67.35;22.27;;;2.70;99.90;;;;;;4976834;28;20105;-82
2021/12/08 09:45:17;;;;;;;60.03;22.05;;;2.70;99.90;;;;;;4976339;28;20499;-82
2021/12/08 09:47:44;;;;;;;54.25;20.58;;;2.70;99.90;;;;;;4992299;28;20125;-82
2021/12/08 09:50:13;;;;;;;61.38;20.30;;;2.80;99.90;;;;;;4988873;28;20069;-83
2021/12/08 09:52:43;;;;;;;56.58;20.73;;;2.80;99.90;;;;;;4975975;28;20077;-81
2021/12/08 09:55:15;;;;;;;54.30;20.05;;;2.80;99.90;;;;;;4954826;28;20109;-82
2021/12/08 09:57:44;;;;;;;50.47;18.98;;;2.80;99.90;;;;;;4971665;28;20078;-80
2021/12/08 10:00:35;;;;;;;50.97;19.02;;;2.70;99.90;;;;;;4965290;28;20141;-81
2021/12/08 10:03:05;;;;;;;56.83;20.83;;;2.70;99.90;;;;;;4975999;28;20950;-80
2021/12/08 10:05:37;;;;;;;57.72;19.80;;;2.70;99.90;;;;;;4975556;28;20480;-80
2021/12/08 10:08:04;;;;;;;63.78;21.15;;;2.70;99.90;;;;;;4983052;28;20099;-81
2021/12/08 10:10:32;;;;;;;56.25;19.95;;;2.70;99.90;;;;;;4989347;28;20054;-81
2021/12/08 10:13:00;;;;;;;56.05;21.98;;;2.70;99.90;;;;;;4969101;28;20081;-81
2021/12/08 10:15:36;;;;;;;49.25;21.02;;;2.70;99.90;;;;;;4989638;28;20074;-81
2021/12/08 10:18:05;;;;;;;52.85;19.80;;;2.70;99.90;;;;;;4983043;28;20058;-80
2021/12/08 10:20:39;;;;;;;52.65;19.00;;;2.70;99.90;;;;;;4965921;28;20078;-80
2021/12/08 10:23:15;;;;;;;59.83;20.73;;;2.70;99.90;;;;;;4972892;28;20137;-81
2021/12/08 10:25:45;;;;;;;55.40;19.55;;;2.70;99.90;;;;;;4988674;28;20081;-80
2021/12/08 10:28:19;;;;;;;55.72;20.85;;;2.70;99.90;;;;;;4982838;28;20089;-80
2021/12/08 10:30:53;;;;;;;59.00;20.95;;;2.60;99.90;;;;;;4971036;28;20089;-81
2021/12/08 10:33:53;;;;;;;59.22;21.65;;;2.70;99.90;;;;;;4968388;28;20050;-81
2021/12/08 10:39:18;;;;;;;62.60;21.33;;;2.60;99.90;;;;;;4990732;28;20054;-80
2021/12/08 10:42:09;;;;;;;56.35;20.23;;;2.60;99.90;;;;;;4985015;28;20082;-81
2021/12/08 10:45:13;;;;;;;61.40;21.42;;;2.60;99.90;;;;;;4986876;28;20132;-81
2021/12/08 10:47:55;;;;;;;60.78;22.38;;;2.60;99.90;;;;;;4975018;28;20121;-81
2021/12/08 10:56:10;;;;;;;52.53;20.98;;;2.50;99.90;;;;;;4982120;28;20654;-82
2021/12/08 10:58:40;;;;;;;62.70;23.13;;;2.60;99.90;;;;;;4960753;28;20054;-83
2021/12/08 11:01:21;;;;;;;66.22;22.70;;;2.60;99.90;;;;;;4974237;28;20057;-83
2021/12/08 11:03:50;;;;;;;60.03;22.20;;;2.60;99.90;;;;;;4974906;28;20046;-82
2021/12/08 11:06:29;;;;;;;56.90;21.55;;;2.70;99.90;;;;;;4988359;28;20450;-81
2021/12/08 11:08:57;;;;;;;60.13;21.92;;;2.70;99.90;;;;;;4983226;28;20125;-80
2021/12/08 11:11:32;;;;;;;58.35;22.25;;;2.80;99.90;;;;;;4963691;28;20043;-81
2021/12/08 11:14:02;;;;;;;60.78;22.20;;;2.90;99.90;;;;;;4990928;28;20061;-82
2021/12/08 11:16:35;;;;;;;56.03;20.95;;;3.10;99.90;;;;;;4997275;28;20137;-79
2021/12/08 11:19:10;;;;;;;59.05;20.90;;;2.90;99.90;;;;;;4998385;28;20735;-82
2021/12/08 11:21:42;;;;;;;57.28;21.42;;;3.10;99.90;;;;;;4976347;28;20108;-80
2021/12/08 11:24:25;;;;;;;59.13;21.20;;;3.00;99.90;;;;;;4972571;28;20129;-79
2021/12/08 11:26:53;;;;;;;61.88;21.95;;;3.10;99.90;;;;;;4974264;28;20082;-79
2021/12/08 11:29:24;;;;;;;54.00;20.60;;;3.00;99.90;;;;;;4984010;28;20889;-80
2021/12/08 11:31:51;;;;;;;51.22;20.52;;;3.00;99.90;;;;;;4970653;28;20074;-80
2021/12/08 11:34:23;;;;;;;64.13;22.00;;;2.90;99.90;;;;;;4971738;28;20050;-79
2021/12/08 11:36:56;;;;;;;57.50;20.35;;;2.90;99.90;;;;;;4989635;28;20074;-80
2021/12/08 11:39:28;;;;;;;67.68;22.00;;;2.90;99.90;;;;;;4973407;28;20212;-79
2021/12/08 11:42:06;;;;;;;64.85;22.52;;;2.90;99.90;;;;;;4987695;28;20381;-79
2021/12/08 11:44:37;;;;;;;54.22;19.67;;;3.00;99.90;;;;;;4973886;28;20061;-80
2021/12/08 11:47:11;;;;;;;61.78;21.45;;;3.00;99.90;;;;;;4973000;28;20129;-80
2021/12/08 11:49:47;;;;;;;60.42;21.95;;;3.00;99.90;;;;;;4970319;28;20046;-79
2021/12/08 11:52:19;;;;;;;61.45;20.85;;;3.00;99.90;;;;;;4987116;28;20066;-78
2021/12/08 11:55:00;;;;;;;54.97;20.60;;;3.10;99.90;;;;;;4987258;28;20054;-80
2021/12/08 11:58:03;;;;;;;58.15;20.35;;;3.00;99.90;;;;;;4989849;28;20050;-80
2021/12/08 12:00:34;;;;;;;53.13;18.85;;;3.00;99.90;;;;;;4905796;29;20798;-78
2021/12/08 12:03:10;;;;;;;59.53;21.38;;;3.00;99.90;;;;;;4956853;28;20054;-78
2021/12/08 12:05:39;;;;;;;61.47;21.73;;;3.00;99.90;;;;;;4981027;28;20057;-79
2021/12/08 12:08:13;;;;;;;59.75;20.98;;;2.90;99.90;;;;;;4983743;28;20085;-78
2021/12/08 12:10:45;;;;;;;60.03;22.17;;;2.90;99.90;;;;;;4968541;28;20582;-78
2021/12/08 12:13:13;;;;;;;62.55;22.13;;;2.90;99.90;;;;;;4966901;28;20089;-77
2021/12/08 12:15:44;;;;;;;64.05;23.02;;;2.90;99.90;;;;;;4972302;28;20061;-78
2021/12/08 12:18:13;;;;;;;60.55;21.70;;;2.90;99.90;;;;;;4990413;28;20073;-78
2021/12/08 12:20:45;;;;;;;58.50;22.25;;;3.00;99.90;;;;;;4973208;28;20054;-79
2021/12/08 12:23:30;;;;;;;57.85;20.13;;;3.00;99.90;;;;;;4990083;28;20058;-79
2021/12/08 12:26:37;;;;;;;54.80;18.55;;;3.10;99.90;;;;;;4991547;28;20057;-79
2021/12/08 12:29:25;;;;;;;61.47;22.30;;;3.30;99.90;;;;;;4928081;28;20056;-78
2021/12/08 12:32:00;;;;;;;52.08;19.48;;;3.40;99.90;;;;;;4991292;28;20085;-79
2021/12/08 12:34:34;;;;;;;55.90;21.20;;;3.60;99.90;;;;;;4991421;28;20104;-79
2021/12/08 12:37:28;;;;;;;56.17;21.00;;;3.50;99.90;;;;;;4974533;28;20054;-78
2021/12/08 12:39:57;;;;;;;58.95;20.58;;;3.60;99.90;;;;;;4983652;28;20054;-79
2021/12/08 12:42:26;;;;;;;61.65;21.58;;;3.60;99.90;;;;;;4991530;28;20137;-78
2021/12/08 12:44:59;;;;;;;62.75;22.45;;;3.50;99.90;;;;;;4973178;28;20699;-79
2021/12/08 12:47:28;;;;;;;54.75;20.20;;;3.50;99.90;;;;;;4991880;28;20094;-79
2021/12/08 12:50:04;;;;;;;54.42;20.80;;;3.50;99.90;;;;;;4974000;28;20077;-78
2021/12/08 12:52:34;;;;;;;57.65;21.15;;;3.50;99.90;;;;;;4990180;28;20097;-78
2021/12/08 12:55:15;;;;;;;54.88;20.17;;;3.40;99.90;;;;;;4989381;28;20085;-78
2021/12/08 12:58:04;;;;;;;63.28;20.70;;;3.40;99.90;;;;;;4992128;28;20058;-77
2021/12/08 13:01:05;;;;;;;53.35;20.83;;;3.50;99.90;;;;;;4993450;28;20133;-78
2021/12/08 13:04:14;;;;;;;56.15;20.33;;;3.50;99.90;;;;;;4965002;28;20782;-78
2021/12/08 13:06:40;;;;;;;60.08;20.98;;;3.40;99.90;;;;;;4975592;28;20054;-78
2021/12/08 13:09:27;;;;;;;59.42;20.92;;;3.30;99.90;;;;;;4976291;28;20779;-78
2021/12/08 13:12:09;;;;;;;68.75;20.95;;;3.30;99.90;;;;;;4976968;28;20073;-78
2021/12/08 13:14:45;;;;;;;53.55;20.33;;;3.30;99.90;;;;;;4986970;28;20563;-77
2021/12/08 13:17:19;;;;;;;50.05;19.73;;;3.20;99.90;;;;;;4990803;28;20448;-78
2021/12/08 13:19:46;;;;;;;55.40;21.50;;;3.10;99.90;;;;;;4992627;28;20157;-78
2021/12/08 13:22:52;;;;;;;55.80;19.58;;;3.10;99.90;;;;;;4990510;28;20089;-77
2021/12/08 13:25:23;;;;;;;;;;;3.10;99.90;;;;;;4992266;28;20155;-78
2021/12/08 13:27:54;;;;;;;51.08;19.10;;;3.00;99.90;;;;;;4992573;28;19969;-79
2021/12/08 13:30:22;;;;;;;58.33;20.55;;;2.90;99.90;;;;;;4993701;28;20074;-78
2021/12/08 13:32:57;;;;;;;59.83;21.38;;;2.80;99.90;;;;;;4975870;28;20085;-78
2021/12/08 13:35:36;;;;;;;62.17;20.50;;;2.80;99.90;;;;;;4993303;28;20054;-78
2021/12/08 13:38:04;;;;;;;59.05;20.95;;;2.80;99.90;;;;;;4976215;28;20185;-78
2021/12/08 13:40:50;;;;;;;59.03;20.33;;;2.90;99.90;;;;;;4976764;28;20693;-78
2021/12/08 13:43:40;;;;;;;56.72;20.00;;;2.80;99.90;;;;;;4994216;28;20081;-78
2021/12/08 13:46:09;;;;;;;57.08;20.70;;;2.70;99.90;;;;;;4994692;28;20081;-78
2021/12/08 13:49:18;;;;;;;55.65;19.92;;;2.70;99.90;;;;;;4977000;28;20476;-78
2021/12/08 13:52:06;;;;;;;52.60;21.13;;;2.70;99.90;;;;;;4994434;28;20459;-77
2021/12/08 13:54:40;;;;;;;67.88;22.75;;;2.70;99.90;;;;;;4994044;28;20046;-78
2021/12/08 13:57:27;;;;;;;55.78;20.77;;;2.70;99.90;;;;;;4994044;28;20050;-78
2021/12/08 14:00:15;;;;;;;65.78;21.67;;;2.70;99.90;;;;;;4976457;28;20050;-78
2021/12/08 14:02:54;;;;;;;64.60;22.10;;;2.70;99.90;;;;;;4986257;28;20856;-78